Time;durP1;ratioP1;P1;durP2;ratioP2;P2;SDS_P1;SDS_P2;PMS_P1;PMS_P2;Temp;Humidity;BMP_temperature;BMP_pressure;BME280_temperature;BME280_humidity;BME280_pressure;Samples;Min_cycle;Max_cycle;Signal;HPM_P1;HPM_P2
2022/08/24 00:01:56;;;;;;;4.77;4.57;;;;;;;;;;5075678;28;20413;-71
2022/08/24 00:04:22;;;;;;;4.63;4.33;;;;;;;;;;5075633;28;20410;-70
2022/08/24 00:06:48;;;;;;;3.90;3.80;;;;;;;;;;5075860;28;20414;-71
2022/08/24 00:09:15;;;;;;;5.30;4.30;;;;;;;;;;5074315;28;20445;-73
2022/08/24 00:11:41;;;;;;;4.50;4.30;;;;;;;;;;5075460;28;20417;-71
2022/08/24 00:14:07;;;;;;;6.23;4.83;;;;;;;;;;5075391;28;20463;-70
2022/08/24 00:16:34;;;;;;;5.40;5.00;;;;;;;;;;5075412;28;20500;-70
2022/08/24 00:19:00;;;;;;;5.80;4.47;;;;;;;;;;5075292;28;20478;-70
2022/08/24 00:21:27;;;;;;;5.13;4.73;;;;;;;;;;5075356;28;20406;-70
2022/08/24 00:23:53;;;;;;;4.47;4.27;;;;;;;;;;5075272;28;20406;-70
2022/08/24 00:26:19;;;;;;;5.33;4.90;;;;;;;;;;5075211;28;20496;-70
2022/08/24 00:28:45;;;;;;;4.80;4.70;;;;;;;;;;5075162;28;20434;-71
2022/08/24 00:31:11;;;;;;;7.00;5.33;;;;;;;;;;5075432;28;20442;-70
2022/08/24 00:33:38;;;;;;;5.13;4.93;;;;;;;;;;5075074;28;20843;-70
2022/08/24 00:36:04;;;;;;;7.00;4.47;;;;;;;;;;5075027;28;20880;-73
2022/08/24 00:38:30;;;;;;;4.93;4.57;;;;;;;;;;5074965;28;20503;-70
2022/08/24 00:40:56;;;;;;;5.03;4.77;;;;;;;;;;5074934;28;20399;-71
2022/08/24 00:43:24;;;;;;;5.10;4.63;;;;;;;;;;5074839;28;20751;-70
2022/08/24 00:45:56;;;;;;;7.73;4.60;;;;;;;;;;5075047;28;20407;-71
2022/08/24 00:48:26;;;;;;;4.60;4.50;;;;;;;;;;5073839;28;20408;-70
2022/08/24 00:51:16;;;;;;;4.80;4.50;;;;;;;;;;5074740;28;20491;-70
2022/08/24 00:53:45;;;;;;;5.47;5.13;;;;;;;;;;5069157;28;20422;-70
2022/08/24 00:56:19;;;;;;;4.90;4.57;;;;;;;;;;5074605;28;20407;-70
2022/08/24 00:58:55;;;;;;;4.80;4.53;;;;;;;;;;5074507;28;20541;-70
2022/08/24 01:01:22;;;;;;;5.30;4.80;;;;;;;;;;5074765;28;20760;-72
2022/08/24 01:03:48;;;;;;;4.77;4.47;;;;;;;;;;5075064;28;20409;-70
2022/08/24 01:06:14;;;;;;;5.50;4.83;;;;;;;;;;5078669;28;20408;-70
2022/08/24 01:08:40;;;;;;;4.93;4.57;;;;;;;;;;5078676;28;20434;-70
2022/08/24 01:11:11;;;;;;;4.87;4.60;;;;;;;;;;5079230;28;20896;-70
2022/08/24 01:13:37;;;;;;;4.40;4.10;;;;;;;;;;5078849;28;20412;-70
2022/08/24 01:16:04;;;;;;;4.47;4.20;;;;;;;;;;5078307;28;20512;-70
2022/08/24 01:18:49;;;;;;;4.37;4.07;;;;;;;;;;5077712;28;20491;-70
2022/08/24 01:21:21;;;;;;;9.27;5.27;;;;;;;;;;5077803;28;20405;-70
2022/08/24 01:23:49;;;;;;;4.23;4.10;;;;;;;;;;5076233;28;20413;-70
2022/08/24 01:26:18;;;;;;;5.70;4.83;;;;;;;;;;5076681;28;20391;-70
2022/08/24 01:28:46;;;;;;;4.67;4.40;;;;;;;;;;5076549;28;20488;-71
2022/08/24 01:31:12;;;;;;;4.47;4.10;;;;;;;;;;5076928;28;20885;-70
2022/08/24 01:33:38;;;;;;;4.60;4.40;;;;;;;;;;5074066;28;20394;-71
2022/08/24 01:36:08;;;;;;;4.40;4.20;;;;;;;;;;5073985;28;20409;-70
2022/08/24 01:38:34;;;;;;;5.30;4.87;;;;;;;;;;5073874;28;20983;-69
2022/08/24 01:41:01;;;;;;;8.90;4.83;;;;;;;;;;5073898;28;20435;-70
2022/08/24 01:43:27;;;;;;;9.67;5.03;;;;;;;;;;5073824;28;20483;-71
2022/08/24 01:45:53;;;;;;;4.93;4.70;;;;;;;;;;5074003;28;20408;-70
2022/08/24 01:48:20;;;;;;;4.80;4.30;;;;;;;;;;5073971;28;20883;-74
2022/08/24 01:50:46;;;;;;;13.40;5.00;;;;;;;;;;5074016;28;20399;-71
2022/08/24 01:53:12;;;;;;;4.70;4.50;;;;;;;;;;5073754;28;20405;-72
2022/08/24 01:55:40;;;;;;;4.80;4.47;;;;;;;;;;5073749;28;20763;-70
2022/08/24 01:58:06;;;;;;;4.93;4.70;;;;;;;;;;5073672;28;20966;-71
2022/08/24 02:00:33;;;;;;;4.40;4.30;;;;;;;;;;5073324;28;20413;-70
2022/08/24 02:02:59;;;;;;;4.97;4.57;;;;;;;;;;5073661;28;20405;-70
2022/08/24 02:05:25;;;;;;;7.73;4.70;;;;;;;;;;5073587;28;20402;-70
2022/08/24 02:07:51;;;;;;;4.63;4.20;;;;;;;;;;5073557;28;20401;-70
2022/08/24 02:10:17;;;;;;;5.07;4.70;;;;;;;;;;5073514;28;20391;-71
2022/08/24 02:12:56;;;;;;;7.93;4.57;;;;;;;;;;5072140;28;20550;-70
2022/08/24 02:15:25;;;;;;;4.67;4.47;;;;;;;;;;5073289;28;20463;-71
2022/08/24 02:17:51;;;;;;;4.77;4.40;;;;;;;;;;5073544;28;20818;-70
2022/08/24 02:20:17;;;;;;;5.13;4.83;;;;;;;;;;5073443;28;20452;-71
2022/08/24 02:22:43;;;;;;;4.53;4.23;;;;;;;;;;5073303;28;20468;-70
2022/08/24 02:25:09;;;;;;;6.13;5.37;;;;;;;;;;5073346;28;20855;-70
2022/08/24 02:27:35;;;;;;;5.37;5.07;;;;;;;;;;5072325;28;20415;-70
2022/08/24 02:30:01;;;;;;;5.83;5.10;;;;;;;;;;5073268;28;20409;-69
2022/08/24 02:32:27;;;;;;;5.83;5.37;;;;;;;;;;5073514;28;20913;-71
2022/08/24 02:34:53;;;;;;;4.93;4.57;;;;;;;;;;5073479;28;20433;-70
2022/08/24 02:37:19;;;;;;;5.00;4.47;;;;;;;;;;5073272;28;20894;-69
2022/08/24 02:39:45;;;;;;;5.87;5.37;;;;;;;;;;5073267;28;20894;-70
2022/08/24 02:42:11;;;;;;;6.63;4.97;;;;;;;;;;5073227;28;20406;-70
2022/08/24 02:44:37;;;;;;;5.23;4.73;;;;;;;;;;5073257;28;20414;-70
2022/08/24 02:47:03;;;;;;;5.50;4.50;;;;;;;;;;5073118;28;20407;-69
2022/08/24 02:49:29;;;;;;;10.47;9.40;;;;;;;;;;5073126;28;20415;-70
2022/08/24 02:51:55;;;;;;;11.17;9.70;;;;;;;;;;5073059;28;20399;-70
2022/08/24 02:54:21;;;;;;;7.20;6.70;;;;;;;;;;5073368;28;20883;-70
2022/08/24 02:56:47;;;;;;;5.80;5.43;;;;;;;;;;5073063;28;20913;-70
2022/08/24 02:59:14;;;;;;;7.10;6.40;;;;;;;;;;5072964;28;20937;-70
2022/08/24 03:01:41;;;;;;;7.13;6.13;;;;;;;;;;5072979;28;20406;-70
2022/08/24 03:04:06;;;;;;;8.10;6.40;;;;;;;;;;5073110;28;20396;-70
2022/08/24 03:06:32;;;;;;;6.57;6.00;;;;;;;;;;5072939;28;20411;-70
2022/08/24 03:08:58;;;;;;;6.10;5.57;;;;;;;;;;5072904;28;20411;-70
2022/08/24 03:11:25;;;;;;;6.77;6.20;;;;;;;;;;5074304;28;20960;-70
2022/08/24 03:13:51;;;;;;;5.97;5.47;;;;;;;;;;5076501;28;20399;-71
2022/08/24 03:16:17;;;;;;;7.87;6.50;;;;;;;;;;5076604;28;20463;-70
2022/08/24 03:18:43;;;;;;;6.90;4.70;;;;;;;;;;5076344;28;20473;-69
2022/08/24 03:21:09;;;;;;;4.53;4.43;;;;;;;;;;5076399;28;20411;-70
2022/08/24 03:23:36;;;;;;;5.40;5.00;;;;;;;;;;5076495;28;20400;-70
2022/08/24 03:26:02;;;;;;;5.43;5.03;;;;;;;;;;5076316;28;20400;-70
2022/08/24 03:28:28;;;;;;;5.50;5.30;;;;;;;;;;5076371;28;20454;-70
2022/08/24 03:30:54;;;;;;;5.50;5.20;;;;;;;;;;5076282;28;20795;-70
2022/08/24 03:33:20;;;;;;;6.13;5.30;;;;;;;;;;5076297;28;20407;-70
2022/08/24 03:35:46;;;;;;;6.33;5.73;;;;;;;;;;5076186;28;20429;-70
2022/08/24 03:38:12;;;;;;;5.40;5.20;;;;;;;;;;5076072;28;20469;-70
2022/08/24 03:40:39;;;;;;;5.57;5.20;;;;;;;;;;5076120;28;20930;-70
2022/08/24 03:43:05;;;;;;;5.00;4.53;;;;;;;;;;5076095;28;20406;-70
2022/08/24 03:45:31;;;;;;;6.17;5.77;;;;;;;;;;5076067;28;20391;-70
2022/08/24 03:47:58;;;;;;;6.10;4.97;;;;;;;;;;5076040;28;20403;-70
2022/08/24 03:50:24;;;;;;;5.67;5.10;;;;;;;;;;5075874;28;20904;-70
2022/08/24 03:52:51;;;;;;;5.40;4.93;;;;;;;;;;5075900;28;20798;-70
2022/08/24 03:55:17;;;;;;;4.97;4.67;;;;;;;;;;5076064;28;20496;-69
2022/08/24 03:57:43;;;;;;;9.00;5.70;;;;;;;;;;5075730;28;20991;-76
2022/08/24 04:00:10;;;;;;;10.40;5.20;;;;;;;;;;5075802;28;20401;-71
2022/08/24 04:02:37;;;;;;;6.13;5.83;;;;;;;;;;5075724;28;20448;-70
2022/08/24 04:05:03;;;;;;;5.47;5.07;;;;;;;;;;5075664;28;20405;-70
2022/08/24 04:07:30;;;;;;;5.10;4.90;;;;;;;;;;5075591;28;20413;-70
2022/08/24 04:09:56;;;;;;;4.93;4.77;;;;;;;;;;5075617;28;20486;-70
2022/08/24 04:12:22;;;;;;;5.50;5.00;;;;;;;;;;5075624;28;20959;-70
2022/08/24 04:14:50;;;;;;;5.10;4.90;;;;;;;;;;5075292;28;20484;-76
2022/08/24 04:17:16;;;;;;;4.90;4.70;;;;;;;;;;5075370;28;20409;-70
2022/08/24 04:19:56;;;;;;;5.43;4.93;;;;;;;;;;5075422;28;20410;-72
2022/08/24 04:22:22;;;;;;;4.77;4.57;;;;;;;;;;5075248;28;20391;-70
2022/08/24 04:24:48;;;;;;;5.43;5.13;;;;;;;;;;5075308;28;20523;-70
2022/08/24 04:27:14;;;;;;;5.13;4.70;;;;;;;;;;5075224;28;20423;-72
2022/08/24 04:29:40;;;;;;;6.90;6.33;;;;;;;;;;5075331;28;20437;-70
2022/08/24 04:32:06;;;;;;;10.07;8.97;;;;;;;;;;5075149;28;20488;-70
2022/08/24 04:34:33;;;;;;;6.90;6.40;;;;;;;;;;5075096;28;20966;-70
2022/08/24 04:36:59;;;;;;;7.13;5.67;;;;;;;;;;5075060;28;20478;-70
2022/08/24 04:39:25;;;;;;;7.00;6.40;;;;;;;;;;5075001;28;20895;-70
2022/08/24 04:41:51;;;;;;;5.43;4.93;;;;;;;;;;5075009;28;20452;-70
2022/08/24 04:44:17;;;;;;;7.13;6.43;;;;;;;;;;5074884;28;20460;-70
2022/08/24 04:46:43;;;;;;;5.53;5.13;;;;;;;;;;5075016;28;20403;-70
2022/08/24 04:49:10;;;;;;;6.47;6.07;;;;;;;;;;5074760;28;20412;-70
2022/08/24 04:51:36;;;;;;;5.57;5.27;;;;;;;;;;5073409;28;20422;-70
2022/08/24 04:54:02;;;;;;;5.90;5.30;;;;;;;;;;5074665;28;20925;-71
2022/08/24 04:56:28;;;;;;;6.27;5.63;;;;;;;;;;5074728;28;20413;-70
2022/08/24 04:58:54;;;;;;;7.80;5.43;;;;;;;;;;5074527;28;20553;-70
2022/08/24 05:01:22;;;;;;;5.50;5.30;;;;;;;;;;5074765;28;20410;-72
2022/08/24 05:03:49;;;;;;;5.30;5.10;;;;;;;;;;5074483;28;20409;-71
2022/08/24 05:06:16;;;;;;;5.77;5.30;;;;;;;;;;5074333;28;20485;-70
2022/08/24 05:08:42;;;;;;;9.40;5.93;;;;;;;;;;5074429;28;20501;-70
2022/08/24 05:11:08;;;;;;;6.40;5.73;;;;;;;;;;5074529;28;20418;-70
2022/08/24 05:13:35;;;;;;;5.53;5.23;;;;;;;;;;5074237;28;20434;-70
2022/08/24 05:16:05;;;;;;;5.63;5.40;;;;;;;;;;5074204;28;20976;-70
2022/08/24 05:18:32;;;;;;;5.97;5.67;;;;;;;;;;5074246;28;20465;-70
2022/08/24 05:20:58;;;;;;;5.93;5.60;;;;;;;;;;5074297;28;20474;-70
2022/08/24 05:23:26;;;;;;;9.83;5.70;;;;;;;;;;5074033;28;20476;-70
2022/08/24 05:25:52;;;;;;;27.23;22.57;;;;;;;;;;5074169;28;20895;-69
2022/08/24 05:28:19;;;;;;;7.67;7.17;;;;;;;;;;5074087;28;20410;-70
2022/08/24 05:30:46;;;;;;;17.67;15.23;;;;;;;;;;5074017;28;20413;-70
2022/08/24 05:33:11;;;;;;;6.47;5.97;;;;;;;;;;5073829;28;20460;-70
2022/08/24 05:35:38;;;;;;;6.60;6.10;;;;;;;;;;5073650;28;20409;-70
2022/08/24 05:38:05;;;;;;;8.33;7.73;;;;;;;;;;5073871;28;20461;-75
2022/08/24 05:40:31;;;;;;;5.67;5.47;;;;;;;;;;5073962;28;20390;-71
2022/08/24 05:42:57;;;;;;;7.37;5.80;;;;;;;;;;5073843;28;20869;-71
2022/08/24 05:45:23;;;;;;;5.67;5.30;;;;;;;;;;5073864;28;20492;-73
2022/08/24 05:47:49;;;;;;;6.30;5.70;;;;;;;;;;5073831;28;20394;-71
2022/08/24 05:50:15;;;;;;;6.00;5.50;;;;;;;;;;5073692;28;20419;-70
2022/08/24 05:52:41;;;;;;;9.80;5.40;;;;;;;;;;5073742;28;20398;-71
2022/08/24 05:55:07;;;;;;;5.67;5.13;;;;;;;;;;5073824;28;20397;-71
2022/08/24 05:57:34;;;;;;;6.40;4.70;;;;;;;;;;5073533;28;20556;-71
2022/08/24 06:00:00;;;;;;;7.33;4.90;;;;;;;;;;5073828;28;20400;-73
2022/08/24 06:02:26;;;;;;;6.73;5.70;;;;;;;;;;5073636;28;20406;-69
2022/08/24 06:04:52;;;;;;;5.73;5.33;;;;;;;;;;5073663;28;20452;-70
2022/08/24 06:07:18;;;;;;;6.03;5.63;;;;;;;;;;5073619;28;20791;-70
2022/08/24 06:09:44;;;;;;;5.50;5.20;;;;;;;;;;5073491;28;20396;-69
2022/08/24 06:12:10;;;;;;;6.50;5.20;;;;;;;;;;5073452;28;20878;-71
2022/08/24 06:14:37;;;;;;;5.80;5.30;;;;;;;;;;5073349;28;20825;-70
2022/08/24 06:17:04;;;;;;;6.53;6.03;;;;;;;;;;5073553;28;20401;-69
2022/08/24 06:19:31;;;;;;;6.00;5.43;;;;;;;;;;5073377;28;20497;-69
2022/08/24 06:21:58;;;;;;;6.03;5.40;;;;;;;;;;5073453;28;20393;-66
2022/08/24 06:27:20;;;;;;;5.10;4.70;;;;;;;;;;5073256;28;20501;-69
2022/08/24 06:27:20;;;;;;;4.93;4.73;;;;;;;;;;5073538;28;20413;-68
2022/08/24 06:29:46;;;;;;;4.97;4.63;;;;;;;;;;5073258;28;20444;-72
2022/08/24 06:32:12;;;;;;;14.13;10.10;;;;;;;;;;5073334;28;20816;-69
2022/08/24 06:34:38;;;;;;;7.10;6.70;;;;;;;;;;5073229;28;20409;-67
2022/08/24 06:37:04;;;;;;;7.53;4.70;;;;;;;;;;5073232;28;20398;-67
2022/08/24 06:39:30;;;;;;;4.70;4.50;;;;;;;;;;5073136;28;20464;-69
2022/08/24 06:41:56;;;;;;;5.43;5.10;;;;;;;;;;5072372;28;20464;-69
2022/08/24 06:44:22;;;;;;;4.97;4.50;;;;;;;;;;5072227;28;20695;-68
2022/08/24 06:46:48;;;;;;;5.10;4.80;;;;;;;;;;5074341;28;20865;-67
2022/08/24 06:49:15;;;;;;;5.10;4.67;;;;;;;;;;5076353;28;20410;-77
2022/08/24 06:51:41;;;;;;;5.33;4.83;;;;;;;;;;5076061;28;20493;-76
2022/08/24 06:54:07;;;;;;;8.03;7.47;;;;;;;;;;5075831;28;20908;-70
2022/08/24 06:56:35;;;;;;;7.83;5.50;;;;;;;;;;5075741;28;20395;-72
2022/08/24 06:59:02;;;;;;;4.57;4.37;;;;;;;;;;5075853;28;20462;-70
2022/08/24 07:01:28;;;;;;;4.80;4.40;;;;;;;;;;5075911;28;20885;-69
2022/08/24 07:03:55;;;;;;;5.07;4.60;;;;;;;;;;5075498;28;20953;-71
2022/08/24 07:06:21;;;;;;;13.67;12.47;;;;;;;;;;5075474;28;20495;-71
2022/08/24 07:08:48;;;;;;;6.07;5.07;;;;;;;;;;5075632;28;20410;-70
2022/08/24 07:11:16;;;;;;;5.60;5.20;;;;;;;;;;5075360;28;20400;-68
2022/08/24 07:13:42;;;;;;;4.30;3.97;;;;;;;;;;5075351;28;20400;-69
2022/08/24 07:16:09;;;;;;;4.60;4.20;;;;;;;;;;5075448;28;20831;-68
2022/08/24 07:18:35;;;;;;;8.97;8.20;;;;;;;;;;5076021;28;20526;-69
2022/08/24 07:21:02;;;;;;;10.23;9.20;;;;;;;;;;5076275;28;20449;-68
2022/08/24 07:23:28;;;;;;;5.13;4.87;;;;;;;;;;5076231;28;20411;-68
2022/08/24 07:25:54;;;;;;;14.20;12.53;;;;;;;;;;5076829;28;20420;-71
2022/08/24 07:28:20;;;;;;;7.10;6.43;;;;;;;;;;5076838;28;20884;-75
2022/08/24 07:30:46;;;;;;;6.10;4.43;;;;;;;;;;5076013;28;20482;-67
2022/08/24 07:33:12;;;;;;;5.80;4.50;;;;;;;;;;5076055;28;20886;-70
2022/08/24 07:35:39;;;;;;;4.83;4.43;;;;;;;;;;5076014;28;20424;-67
2022/08/24 07:38:05;;;;;;;4.50;4.30;;;;;;;;;;5075819;28;20449;-68
2022/08/24 07:40:32;;;;;;;4.53;4.33;;;;;;;;;;5075942;28;20500;-67
2022/08/24 07:42:58;;;;;;;4.87;4.47;;;;;;;;;;5075664;28;20477;-72
2022/08/24 07:45:25;;;;;;;5.07;4.70;;;;;;;;;;5075951;28;20400;-67
2022/08/24 07:47:52;;;;;;;7.03;4.07;;;;;;;;;;5075735;28;20490;-67
2022/08/24 07:50:19;;;;;;;7.33;3.77;;;;;;;;;;5075690;28;20403;-67
2022/08/24 07:52:45;;;;;;;7.73;3.90;;;;;;;;;;5075725;28;20397;-64
2022/08/24 07:55:12;;;;;;;3.93;3.83;;;;;;;;;;5075568;28;20398;-66
2022/08/24 07:57:39;;;;;;;5.93;5.10;;;;;;;;;;5075131;28;20939;-68
2022/08/24 08:00:09;;;;;;;5.30;4.80;;;;;;;;;;5075627;28;20458;-69
2022/08/24 08:02:36;;;;;;;17.80;4.13;;;;;;;;;;5075412;28;20393;-70
2022/08/24 08:05:02;;;;;;;4.93;4.17;;;;;;;;;;5075360;28;20408;-71
2022/08/24 08:07:29;;;;;;;4.43;4.03;;;;;;;;;;5075079;28;20397;-71
2022/08/24 08:09:55;;;;;;;4.40;3.80;;;;;;;;;;5073858;28;20519;-73
2022/08/24 08:12:21;;;;;;;5.27;3.80;;;;;;;;;;5075228;28;20439;-72
2022/08/24 08:14:47;;;;;;;4.07;3.87;;;;;;;;;;5075143;28;20495;-71
2022/08/24 08:17:15;;;;;;;7.30;3.80;;;;;;;;;;5075178;28;20441;-74
2022/08/24 08:19:42;;;;;;;3.97;3.77;;;;;;;;;;5074918;28;20424;-73
2022/08/24 08:24:54;;;;;;;13.60;12.17;;;;;;;;;;5075017;28;20451;-70
2022/08/24 08:27:20;;;;;;;3.93;3.73;;;;;;;;;;5075005;28;20490;-71
2022/08/24 08:29:47;;;;;;;6.20;3.70;;;;;;;;;;5074962;28;20439;-70
2022/08/24 08:32:15;;;;;;;3.17;3.17;;;;;;;;;;5074879;28;20484;-70
2022/08/24 08:34:42;;;;;;;4.37;4.07;;;;;;;;;;5074752;28;20832;-69
2022/08/24 08:37:08;;;;;;;3.87;3.30;;;;;;;;;;5074665;28;20807;-70
2022/08/24 08:39:34;;;;;;;2.67;2.60;;;;;;;;;;5074967;28;20508;-70
2022/08/24 08:42:13;;;;;;;3.77;3.67;;;;;;;;;;5074689;28;20392;-70
2022/08/24 08:44:52;;;;;;;4.63;3.50;;;;;;;;;;5074946;28;20408;-68
2022/08/24 08:47:18;;;;;;;5.30;4.13;;;;;;;;;;5074646;28;20800;-70
2022/08/24 08:50:02;;;;;;;3.33;3.23;;;;;;;;;;5074578;28;20406;-73
2022/08/24 08:52:52;;;;;;;4.47;3.70;;;;;;;;;;5074500;28;20418;-69
2022/08/24 08:55:27;;;;;;;4.40;3.60;;;;;;;;;;5055309;28;20563;-70
2022/08/24 08:58:02;;;;;;;7.83;4.10;;;;;;;;;;5074286;28;20454;-68
2022/08/24 09:00:47;;;;;;;5.50;3.50;;;;;;;;;;5074324;28;20401;-69
2022/08/24 09:03:15;;;;;;;3.40;3.30;;;;;;;;;;5074194;28;20467;-69
2022/08/24 09:05:51;;;;;;;4.10;3.80;;;;;;;;;;5074502;28;20928;-69
2022/08/24 09:08:29;;;;;;;4.70;3.90;;;;;;;;;;5073649;28;20397;-71
2022/08/24 09:10:56;;;;;;;5.47;4.00;;;;;;;;;;5074096;28;20853;-68
2022/08/24 09:13:40;;;;;;;4.40;4.00;;;;;;;;;;5073961;28;20417;-70
2022/08/24 09:16:09;;;;;;;4.00;3.90;;;;;;;;;;5073976;28;20523;-70
2022/08/24 09:18:35;;;;;;;4.53;3.53;;;;;;;;;;5073800;28;20877;-70
2022/08/24 09:21:13;;;;;;;4.00;3.80;;;;;;;;;;5073871;28;20402;-70
2022/08/24 09:23:59;;;;;;;11.07;3.50;;;;;;;;;;5073940;28;20434;-70
2022/08/24 09:26:31;;;;;;;3.63;3.30;;;;;;;;;;5073788;28;20409;-70
2022/08/24 09:29:09;;;;;;;3.80;3.60;;;;;;;;;;5074021;28;20403;-70
2022/08/24 09:31:50;;;;;;;8.47;5.20;;;;;;;;;;5074043;28;20425;-70
2022/08/24 09:34:19;;;;;;;6.43;3.77;;;;;;;;;;5073805;28;20397;-69
2022/08/24 09:36:54;;;;;;;20.80;7.07;;;;;;;;;;5073971;28;20399;-70
2022/08/24 09:39:32;;;;;;;4.37;3.97;;;;;;;;;;5073475;28;20492;-69
2022/08/24 09:41:58;;;;;;;3.73;3.43;;;;;;;;;;5073643;28;20748;-70
2022/08/24 09:44:27;;;;;;;6.80;4.30;;;;;;;;;;5073650;28;20410;-69
2022/08/24 09:47:12;;;;;;;5.33;3.77;;;;;;;;;;5073531;28;20919;-69
2022/08/24 09:50:04;;;;;;;7.67;4.20;;;;;;;;;;5073362;28;20398;-69
2022/08/24 09:52:53;;;;;;;4.17;3.50;;;;;;;;;;5070822;28;20418;-70
2022/08/24 09:55:37;;;;;;;3.30;3.20;;;;;;;;;;5073237;28;20425;-69
2022/08/24 09:58:18;;;;;;;3.23;3.10;;;;;;;;;;5073128;28;20453;-69
2022/08/24 10:00:46;;;;;;;6.00;3.00;;;;;;;;;;5073032;28;20409;-69
2022/08/24 10:03:27;;;;;;;3.40;3.10;;;;;;;;;;5073298;28;20402;-70
2022/08/24 10:05:56;;;;;;;6.00;4.20;;;;;;;;;;5073339;28;20873;-69
2022/08/24 10:08:34;;;;;;;9.20;2.77;;;;;;;;;;5073198;28;20422;-67
2022/08/24 10:11:03;;;;;;;3.70;3.50;;;;;;;;;;5073063;28;20758;-68
2022/08/24 10:13:35;;;;;;;3.90;3.10;;;;;;;;;;5073027;28;20452;-69
2022/08/24 10:16:16;;;;;;;4.03;3.33;;;;;;;;;;5072584;28;20509;-71
2022/08/24 10:18:45;;;;;;;3.73;3.53;;;;;;;;;;5073363;28;20568;-70
2022/08/24 10:21:30;;;;;;;10.07;2.80;;;;;;;;;;5078214;28;20880;-70
2022/08/24 10:24:08;;;;;;;3.10;2.40;;;;;;;;;;5079964;28;20749;-71
2022/08/24 10:26:40;;;;;;;3.20;2.73;;;;;;;;;;5079956;28;20880;-70
2022/08/24 10:29:22;;;;;;;3.57;2.40;;;;;;;;;;5079955;28;20399;-71
2022/08/24 10:31:50;;;;;;;3.30;3.00;;;;;;;;;;5080087;28;20406;-70
2022/08/24 10:34:35;;;;;;;4.83;2.20;;;;;;;;;;5079820;28;20473;-72
2022/08/24 10:37:01;;;;;;;2.30;2.20;;;;;;;;;;5079753;28;20390;-71
2022/08/24 10:39:46;;;;;;;3.47;2.53;;;;;;;;;;5079732;28;20454;-70
2022/08/24 10:43:32;;;;;;;2.57;2.50;;;;;;;;;;5079692;28;20382;-73
2022/08/24 10:45:17;;;;;;;2.60;2.13;;;;;;;;;;5079541;28;20429;-71
2022/08/24 10:48:03;;;;;;;3.43;1.87;;;;;;;;;;5078339;28;20835;-70
2022/08/24 10:50:43;;;;;;;3.03;1.80;;;;;;;;;;5058388;28;20793;-68
2022/08/24 10:53:15;;;;;;;1.63;1.63;;;;;;;;;;5079733;28;20409;-69
2022/08/24 10:55:42;;;;;;;3.90;1.70;;;;;;;;;;5079624;28;20417;-69
2022/08/24 10:58:28;;;;;;;1.63;1.40;;;;;;;;;;5079569;28;20537;-69
2022/08/24 11:00:54;;;;;;;1.60;1.50;;;;;;;;;;5079579;28;20489;-73
2022/08/24 11:03:22;;;;;;;1.40;1.30;;;;;;;;;;5079579;28;20397;-69
2022/08/24 11:05:53;;;;;;;2.50;1.30;;;;;;;;;;5079513;28;20946;-70
2022/08/24 11:08:19;;;;;;;1.20;1.20;;;;;;;;;;5079493;28;20425;-70
2022/08/24 11:10:46;;;;;;;1.40;1.40;;;;;;;;;;5079541;28;20437;-70
2022/08/24 11:13:26;;;;;;;1.17;1.17;;;;;;;;;;5079660;28;20401;-71
2022/08/24 11:15:54;;;;;;;3.00;1.60;;;;;;;;;;5079289;28;20472;-69
2022/08/24 11:18:21;;;;;;;1.30;1.30;;;;;;;;;;5079638;28;20986;-70
2022/08/24 11:20:48;;;;;;;1.17;1.17;;;;;;;;;;5082412;28;20391;-70
2022/08/24 11:23:14;;;;;;;3.23;1.50;;;;;;;;;;5083055;28;20410;-69
2022/08/24 11:25:44;;;;;;;1.20;1.20;;;;;;;;;;5083089;28;20756;-69
2022/08/24 11:28:10;;;;;;;1.70;1.63;;;;;;;;;;5083428;28;20172;-69
2022/08/24 11:30:40;;;;;;;1.10;1.10;;;;;;;;;;5082249;28;20891;-69
2022/08/24 11:33:23;;;;;;;1.37;1.37;;;;;;;;;;5079586;28;20657;-70
2022/08/24 11:35:48;;;;;;;3.37;1.20;;;;;;;;;;5078749;28;20399;-69
2022/08/24 11:38:18;;;;;;;1.27;1.27;;;;;;;;;;5079054;28;20508;-70
2022/08/24 11:41:07;;;;;;;7.30;1.30;;;;;;;;;;5078543;28;20402;-69
2022/08/24 11:43:51;;;;;;;2.63;1.30;;;;;;;;;;5077002;28;20939;-70
2022/08/24 11:46:28;;;;;;;2.07;1.40;;;;;;;;;;5076048;28;20502;-70
2022/08/24 11:49:09;;;;;;;1.50;1.40;;;;;;;;;;5076204;28;20401;-70
2022/08/24 11:51:38;;;;;;;1.20;1.20;;;;;;;;;;5076141;28;20406;-69
2022/08/24 11:54:23;;;;;;;1.73;1.23;;;;;;;;;;5076111;28;20395;-71
2022/08/24 11:56:52;;;;;;;1.50;1.47;;;;;;;;;;5075829;28;20406;-70
2022/08/24 11:59:31;;;;;;;1.57;1.47;;;;;;;;;;5075663;28;20458;-70
2022/08/24 12:01:59;;;;;;;1.80;1.37;;;;;;;;;;5075710;28;20456;-70
2022/08/24 12:04:37;;;;;;;1.97;1.87;;;;;;;;;;5075562;28;20457;-71
2022/08/24 12:07:14;;;;;;;1.37;1.27;;;;;;;;;;5075554;28;20444;-70
2022/08/24 12:09:59;;;;;;;1.97;1.20;;;;;;;;;;5075519;28;20421;-71
2022/08/24 12:12:34;;;;;;;1.70;1.60;;;;;;;;;;5075538;28;20405;-70
2022/08/24 12:15:10;;;;;;;1.53;1.40;;;;;;;;;;5075329;28;20473;-71
2022/08/24 12:17:44;;;;;;;1.70;1.70;;;;;;;;;;5075299;28;20397;-71
2022/08/24 12:20:26;;;;;;;1.30;1.30;;;;;;;;;;5075230;28;20403;-70
2022/08/24 12:22:52;;;;;;;3.13;1.57;;;;;;;;;;5075263;28;20386;-70
2022/08/24 12:28:04;;;;;;;4.63;4.13;;;;;;;;;;5075399;28;20392;-70
2022/08/24 12:30:30;;;;;;;1.70;1.60;;;;;;;;;;5075130;28;20481;-70
2022/08/24 12:33:02;;;;;;;1.13;1.10;;;;;;;;;;5075040;28;20481;-71
2022/08/24 12:35:39;;;;;;;1.30;1.30;;;;;;;;;;5075043;28;20394;-70
2022/08/24 12:38:11;;;;;;;2.17;1.93;;;;;;;;;;5073538;28;20472;-70
2022/08/24 12:40:42;;;;;;;1.03;1.03;;;;;;;;;;5074859;28;20423;-70
2022/08/24 12:43:22;;;;;;;1.33;1.23;;;;;;;;;;5074060;28;20410;-71
2022/08/24 12:45:48;;;;;;;3.00;1.33;;;;;;;;;;5074710;28;20470;-71
2022/08/24 12:48:20;;;;;;;1.47;1.40;;;;;;;;;;5074707;28;20407;-71
2022/08/24 12:51:05;;;;;;;0.90;0.90;;;;;;;;;;5074658;28;20434;-70
2022/08/24 12:53:37;;;;;;;2.63;1.90;;;;;;;;;;5074818;28;20426;-71
2022/08/24 12:56:14;;;;;;;2.23;1.30;;;;;;;;;;5074595;28;20476;-71
2022/08/24 12:58:49;;;;;;;1.40;0.90;;;;;;;;;;5074465;28;20471;-73
2022/08/24 13:01:15;;;;;;;1.57;1.47;;;;;;;;;;5074415;28;20490;-71
2022/08/24 13:03:43;;;;;;;1.37;1.37;;;;;;;;;;5074322;28;20406;-70
2022/08/24 13:06:35;;;;;;;2.10;1.20;;;;;;;;;;5074319;28;20441;-70
2022/08/24 13:09:16;;;;;;;8.00;1.23;;;;;;;;;;5074269;28;20443;-71
2022/08/24 13:11:43;;;;;;;1.37;1.17;;;;;;;;;;5074144;28;20528;-70
2022/08/24 13:14:12;;;;;;;5.57;1.20;;;;;;;;;;5074159;28;20402;-70
2022/08/24 13:16:50;;;;;;;1.20;1.20;;;;;;;;;;5074099;28;20946;-70
2022/08/24 13:19:22;;;;;;;1.20;1.03;;;;;;;;;;5074306;28;20607;-70
2022/08/24 13:21:53;;;;;;;1.17;1.17;;;;;;;;;;5074003;28;20469;-70
2022/08/24 13:24:31;;;;;;;2.27;1.10;;;;;;;;;;5073980;28;20399;-71
2022/08/24 13:26:58;;;;;;;3.97;1.57;;;;;;;;;;5073978;28;20387;-70
2022/08/24 13:29:26;;;;;;;1.10;1.10;;;;;;;;;;5073932;28;20447;-70
2022/08/24 13:31:55;;;;;;;1.50;1.50;;;;;;;;;;5073859;28;20952;-72
2022/08/24 13:34:23;;;;;;;1.20;1.20;;;;;;;;;;5073763;28;20395;-70
2022/08/24 13:36:49;;;;;;;1.73;1.63;;;;;;;;;;5074024;28;20493;-70
2022/08/24 13:39:44;;;;;;;2.10;0.83;;;;;;;;;;5073664;28;20546;-70
2022/08/24 13:42:16;;;;;;;4.80;4.60;;;;;;;;;;5073721;28;20430;-70
2022/08/24 13:45:01;;;;;;;1.67;1.67;;;;;;;;;;5073570;28;20405;-70
2022/08/24 13:47:46;;;;;;;12.70;1.60;;;;;;;;;;5073613;28;20396;-71
2022/08/24 13:50:26;;;;;;;2.03;1.30;;;;;;;;;;5073699;28;20446;-72
2022/08/24 13:53:11;;;;;;;1.20;1.17;;;;;;;;;;5073506;28;20422;-70
2022/08/24 13:55:49;;;;;;;1.33;1.20;;;;;;;;;;5073150;28;20421;-70
2022/08/24 13:58:20;;;;;;;2.27;1.20;;;;;;;;;;5073396;28;20555;-70
2022/08/24 14:01:02;;;;;;;2.73;1.13;;;;;;;;;;5073447;28;20429;-70
2022/08/24 14:03:38;;;;;;;2.53;1.30;;;;;;;;;;5073416;28;20386;-70
2022/08/24 14:06:07;;;;;;;1.10;1.10;;;;;;;;;;5073392;28;20402;-71
2022/08/24 14:08:47;;;;;;;2.80;1.20;;;;;;;;;;5073591;28;20795;-71
2022/08/24 14:11:20;;;;;;;1.83;1.30;;;;;;;;;;5073323;28;20409;-71
2022/08/24 14:14:02;;;;;;;2.30;1.10;;;;;;;;;;5072896;28;20813;-72
2022/08/24 14:19:27;;;;;;;1.30;1.30;;;;;;;;;;5072880;28;21060;-71
2022/08/24 14:21:58;;;;;;;2.20;1.10;;;;;;;;;;5073003;28;20489;-72
2022/08/24 14:24:35;;;;;;;1.57;1.57;;;;;;;;;;5073246;28;20479;-80
2022/08/24 14:27:07;;;;;;;1.73;1.00;;;;;;;;;;5073490;28;20395;-71
2022/08/24 14:29:39;;;;;;;1.30;1.30;;;;;;;;;;5073242;28;20409;-68
2022/08/24 14:32:05;;;;;;;1.30;1.13;;;;;;;;;;5073138;28;20873;-71
2022/08/24 14:34:38;;;;;;;1.40;1.30;;;;;;;;;;5073023;28;20410;-78
2022/08/24 14:37:08;;;;;;;1.43;1.33;;;;;;;;;;5071840;28;20305;-68
2022/08/24 14:39:53;;;;;;;1.10;1.10;;;;;;;;;;5071755;28;20465;-69
2022/08/24 14:42:31;;;;;;;1.13;1.03;;;;;;;;;;5072128;28;20402;-70
2022/08/24 14:45:01;;;;;;;0.80;0.80;;;;;;;;;;5071938;28;20459;-73
2022/08/24 14:47:30;;;;;;;1.13;1.13;;;;;;;;;;5072107;28;20441;-68
2022/08/24 14:50:03;;;;;;;2.10;1.07;;;;;;;;;;5071579;28;20402;-71
2022/08/24 14:52:29;;;;;;;1.10;1.10;;;;;;;;;;5072675;28;20432;-69
2022/08/24 14:55:14;;;;;;;1.43;1.10;;;;;;;;;;5072544;28;20425;-72
2022/08/24 14:57:49;;;;;;;3.77;1.27;;;;;;;;;;5071743;28;20164;-67
2022/08/24 15:00:15;;;;;;;1.50;1.40;;;;;;;;;;5071695;28;20409;-65
2022/08/24 15:02:41;;;;;;;1.57;1.30;;;;;;;;;;5071956;28;20398;-64
2022/08/24 15:05:17;;;;;;;1.30;1.20;;;;;;;;;;5071772;28;20203;-65
2022/08/24 15:08:02;;;;;;;2.03;1.43;;;;;;;;;;5074077;28;20406;-68
2022/08/24 15:10:33;;;;;;;1.30;1.20;;;;;;;;;;5075644;28;20405;-65